Terminal Aerodrome Forecast
Issued by NWS

Home | Current Version | Previous Version | Text Only | Print | Product List | Glossary On
Versions: 1 2 3 4 5 6 7 8 9 10 11 12 13 14
864
FTPA31 PHFO 282338
TAFHJR
TAF
PHJR 282338Z 2900/2924 06012G18KT P6SM FEW025 SCT040
     FM290500 06006KT P6SM FEW040
     FM291900 06010G16KT P6SM FEW025 SCT040=

USA.gov is the U.S. government's official web portal to all federal, state and local government web resources and services.